sensor_id;sensor_type;location;lat;lon;timestamp;P1;durP1;ratioP1;P2;durP2;ratioP2
63945;SDS011;50122;56.330;43.838;2022-08-21T00:00:25;12.57;;;6.15;;
63945;SDS011;50122;56.330;43.838;2022-08-21T00:02:58;12.95;;;6.68;;
63945;SDS011;50122;56.330;43.838;2022-08-21T00:05:29;13.13;;;6.75;;
63945;SDS011;50122;56.330;43.838;2022-08-21T00:07:58;11.15;;;6.30;;
63945;SDS011;50122;56.330;43.838;2022-08-21T00:10:25;12.45;;;6.78;;
63945;SDS011;50122;56.330;43.838;2022-08-21T00:12:52;16.20;;;6.75;;
63945;SDS011;50122;56.330;43.838;2022-08-21T00:15:20;9.98;;;6.20;;
63945;SDS011;50122;56.330;43.838;2022-08-21T00:17:50;14.07;;;6.70;;
63945;SDS011;50122;56.330;43.838;2022-08-21T00:20:17;11.27;;;6.68;;
63945;SDS011;50122;56.330;43.838;2022-08-21T00:22:43;13.13;;;6.88;;
63945;SDS011;50122;56.330;43.838;2022-08-21T00:25:11;13.45;;;6.95;;
63945;SDS011;50122;56.330;43.838;2022-08-21T00:27:39;9.80;;;6.85;;
63945;SDS011;50122;56.330;43.838;2022-08-21T00:30:09;12.43;;;7.22;;
63945;SDS011;50122;56.330;43.838;2022-08-21T00:32:47;12.40;;;7.07;;
63945;SDS011;50122;56.330;43.838;2022-08-21T00:35:17;16.90;;;7.40;;
63945;SDS011;50122;56.330;43.838;2022-08-21T00:37:47;14.00;;;6.70;;
63945;SDS011;50122;56.330;43.838;2022-08-21T00:40:15;12.75;;;6.40;;
63945;SDS011;50122;56.330;43.838;2022-08-21T00:42:45;13.25;;;7.30;;
63945;SDS011;50122;56.330;43.838;2022-08-21T00:45:19;13.30;;;7.60;;
63945;SDS011;50122;56.330;43.838;2022-08-21T00:47:50;12.68;;;7.30;;
63945;SDS011;50122;56.330;43.838;2022-08-21T00:50:18;11.88;;;7.25;;
63945;SDS011;50122;56.330;43.838;2022-08-21T00:52:47;16.02;;;7.78;;
63945;SDS011;50122;56.330;43.838;2022-08-21T00:55:15;11.35;;;6.82;;
63945;SDS011;50122;56.330;43.838;2022-08-21T00:57:44;18.13;;;7.70;;
63945;SDS011;50122;56.330;43.838;2022-08-21T01:00:16;15.68;;;7.75;;
63945;SDS011;50122;56.330;43.838;2022-08-21T01:02:56;10.75;;;6.95;;
63945;SDS011;50122;56.330;43.838;2022-08-21T01:05:24;12.38;;;7.63;;
63945;SDS011;50122;56.330;43.838;2022-08-21T01:07:51;21.08;;;7.57;;
63945;SDS011;50122;56.330;43.838;2022-08-21T01:10:18;14.77;;;7.10;;
63945;SDS011;50122;56.330;43.838;2022-08-21T01:12:50;16.33;;;8.02;;
63945;SDS011;50122;56.330;43.838;2022-08-21T01:15:20;18.63;;;8.18;;
63945;SDS011;50122;56.330;43.838;2022-08-21T01:17:49;17.20;;;8.20;;
63945;SDS011;50122;56.330;43.838;2022-08-21T01:20:17;17.70;;;8.40;;
63945;SDS011;50122;56.330;43.838;2022-08-21T01:22:45;16.88;;;8.57;;
63945;SDS011;50122;56.330;43.838;2022-08-21T01:25:13;15.85;;;9.00;;
63945;SDS011;50122;56.330;43.838;2022-08-21T01:27:41;16.55;;;8.80;;
63945;SDS011;50122;56.330;43.838;2022-08-21T01:30:11;17.27;;;9.63;;
63945;SDS011;50122;56.330;43.838;2022-08-21T01:32:41;13.98;;;8.60;;
63945;SDS011;50122;56.330;43.838;2022-08-21T01:35:08;17.17;;;9.70;;
63945;SDS011;50122;56.330;43.838;2022-08-21T01:37:38;14.82;;;9.80;;
63945;SDS011;50122;56.330;43.838;2022-08-21T01:40:06;17.50;;;9.95;;
63945;SDS011;50122;56.330;43.838;2022-08-21T01:42:34;17.90;;;10.32;;
63945;SDS011;50122;56.330;43.838;2022-08-21T01:45:02;18.13;;;11.73;;
63945;SDS011;50122;56.330;43.838;2022-08-21T01:47:30;18.48;;;11.25;;
63945;SDS011;50122;56.330;43.838;2022-08-21T01:49:57;22.35;;;10.73;;
63945;SDS011;50122;56.330;43.838;2022-08-21T01:52:23;15.93;;;9.82;;
63945;SDS011;50122;56.330;43.838;2022-08-21T01:54:50;16.92;;;11.20;;
63945;SDS011;50122;56.330;43.838;2022-08-21T01:57:21;20.65;;;11.00;;
63945;SDS011;50122;56.330;43.838;2022-08-21T01:59:51;20.15;;;12.50;;
63945;SDS011;50122;56.330;43.838;2022-08-21T02:02:18;24.38;;;13.90;;
63945;SDS011;50122;56.330;43.838;2022-08-21T02:04:45;22.52;;;16.10;;
63945;SDS011;50122;56.330;43.838;2022-08-21T02:07:12;30.63;;;18.90;;
63945;SDS011;50122;56.330;43.838;2022-08-21T02:09:39;38.45;;;23.27;;
63945;SDS011;50122;56.330;43.838;2022-08-21T02:12:09;40.08;;;24.63;;
63945;SDS011;50122;56.330;43.838;2022-08-21T02:14:38;40.78;;;24.13;;
63945;SDS011;50122;56.330;43.838;2022-08-21T02:17:05;47.28;;;30.35;;
63945;SDS011;50122;56.330;43.838;2022-08-21T02:19:35;48.10;;;30.65;;
63945;SDS011;50122;56.330;43.838;2022-08-21T02:22:09;55.22;;;35.25;;
63945;SDS011;50122;56.330;43.838;2022-08-21T02:24:37;71.50;;;39.90;;
63945;SDS011;50122;56.330;43.838;2022-08-21T02:27:20;67.32;;;43.40;;
63945;SDS011;50122;56.330;43.838;2022-08-21T02:29:56;68.47;;;43.03;;
63945;SDS011;50122;56.330;43.838;2022-08-21T02:32:23;79.78;;;49.35;;
63945;SDS011;50122;56.330;43.838;2022-08-21T02:34:52;90.85;;;51.70;;
63945;SDS011;50122;56.330;43.838;2022-08-21T02:37:21;90.20;;;54.75;;
63945;SDS011;50122;56.330;43.838;2022-08-21T02:39:49;89.85;;;55.50;;
63945;SDS011;50122;56.330;43.838;2022-08-21T02:42:16;96.32;;;59.28;;
63945;SDS011;50122;56.330;43.838;2022-08-21T02:44:43;97.72;;;57.95;;
63945;SDS011;50122;56.330;43.838;2022-08-21T02:47:10;115.47;;;61.08;;
63945;SDS011;50122;56.330;43.838;2022-08-21T02:49:37;128.75;;;60.53;;
63945;SDS011;50122;56.330;43.838;2022-08-21T02:52:03;96.97;;;60.10;;
63945;SDS011;50122;56.330;43.838;2022-08-21T02:54:33;119.95;;;67.40;;
63945;SDS011;50122;56.330;43.838;2022-08-21T02:57:00;98.18;;;60.92;;
63945;SDS011;50122;56.330;43.838;2022-08-21T02:59:27;106.88;;;66.63;;
63945;SDS011;50122;56.330;43.838;2022-08-21T03:01:53;114.68;;;69.20;;
63945;SDS011;50122;56.330;43.838;2022-08-21T03:04:21;115.07;;;70.75;;
63945;SDS011;50122;56.330;43.838;2022-08-21T03:06:48;120.13;;;73.78;;
63945;SDS011;50122;56.330;43.838;2022-08-21T03:09:15;126.15;;;74.78;;
63945;SDS011;50122;56.330;43.838;2022-08-21T03:11:42;122.20;;;77.20;;
63945;SDS011;50122;56.330;43.838;2022-08-21T03:14:09;134.70;;;78.80;;
63945;SDS011;50122;56.330;43.838;2022-08-21T03:16:36;133.43;;;75.30;;
63945;SDS011;50122;56.330;43.838;2022-08-21T03:19:02;141.68;;;82.40;;
63945;SDS011;50122;56.330;43.838;2022-08-21T03:21:29;140.63;;;82.75;;
63945;SDS011;50122;56.330;43.838;2022-08-21T03:23:56;144.43;;;82.70;;
63945;SDS011;50122;56.330;43.838;2022-08-21T03:26:23;136.88;;;82.18;;
63945;SDS011;50122;56.330;43.838;2022-08-21T03:28:53;145.27;;;80.38;;
63945;SDS011;50122;56.330;43.838;2022-08-21T03:31:19;143.60;;;85.20;;
63945;SDS011;50122;56.330;43.838;2022-08-21T03:33:47;146.32;;;84.93;;
63945;SDS011;50122;56.330;43.838;2022-08-21T03:36:14;150.43;;;87.70;;
63945;SDS011;50122;56.330;43.838;2022-08-21T03:38:41;154.40;;;90.18;;
63945;SDS011;50122;56.330;43.838;2022-08-21T03:41:08;149.20;;;84.80;;
63945;SDS011;50122;56.330;43.838;2022-08-21T03:43:35;147.30;;;85.75;;
63945;SDS011;50122;56.330;43.838;2022-08-21T03:46:02;150.02;;;91.45;;
63945;SDS011;50122;56.330;43.838;2022-08-21T03:48:32;153.10;;;91.97;;
63945;SDS011;50122;56.330;43.838;2022-08-21T03:51:01;159.30;;;91.60;;
63945;SDS011;50122;56.330;43.838;2022-08-21T03:53:28;151.05;;;87.55;;
63945;SDS011;50122;56.330;43.838;2022-08-21T03:55:56;165.48;;;98.47;;
63945;SDS011;50122;56.330;43.838;2022-08-21T03:58:25;170.70;;;100.72;;
63945;SDS011;50122;56.330;43.838;2022-08-21T04:00:54;169.60;;;99.20;;
63945;SDS011;50122;56.330;43.838;2022-08-21T04:03:23;174.50;;;103.63;;
63945;SDS011;50122;56.330;43.838;2022-08-21T04:05:51;169.85;;;100.10;;
63945;SDS011;50122;56.330;43.838;2022-08-21T04:08:18;180.07;;;105.55;;
63945;SDS011;50122;56.330;43.838;2022-08-21T04:10:46;180.30;;;105.93;;
63945;SDS011;50122;56.330;43.838;2022-08-21T04:13:17;182.18;;;107.43;;
63945;SDS011;50122;56.330;43.838;2022-08-21T17:13:25;14.68;;;4.57;;
63945;SDS011;50122;56.330;43.838;2022-08-21T17:15:53;15.25;;;4.15;;
63945;SDS011;50122;56.330;43.838;2022-08-21T17:18:21;31.05;;;5.03;;
63945;SDS011;50122;56.330;43.838;2022-08-21T17:20:50;16.02;;;4.88;;
63945;SDS011;50122;56.330;43.838;2022-08-21T17:23:19;14.57;;;4.28;;
63945;SDS011;50122;56.330;43.838;2022-08-21T17:25:47;13.25;;;4.25;;
63945;SDS011;50122;56.330;43.838;2022-08-21T17:28:18;12.15;;;4.07;;
63945;SDS011;50122;56.330;43.838;2022-08-21T17:30:53;10.50;;;4.43;;
63945;SDS011;50122;56.330;43.838;2022-08-21T17:33:23;7.72;;;4.15;;
63945;SDS011;50122;56.330;43.838;2022-08-21T17:35:53;8.45;;;4.28;;
63945;SDS011;50122;56.330;43.838;2022-08-21T17:38:20;8.82;;;4.25;;
63945;SDS011;50122;56.330;43.838;2022-08-21T17:40:47;12.77;;;4.53;;
63945;SDS011;50122;56.330;43.838;2022-08-21T17:43:14;9.80;;;4.07;;
63945;SDS011;50122;56.330;43.838;2022-08-21T17:45:41;13.85;;;3.72;;
63945;SDS011;50122;56.330;43.838;2022-08-21T17:48:10;9.23;;;3.63;;
63945;SDS011;50122;56.330;43.838;2022-08-21T17:50:37;11.32;;;4.00;;
63945;SDS011;50122;56.330;43.838;2022-08-21T17:53:04;10.57;;;4.20;;
63945;SDS011;50122;56.330;43.838;2022-08-21T17:55:32;9.65;;;4.57;;
63945;SDS011;50122;56.330;43.838;2022-08-21T17:57:59;9.50;;;4.93;;
63945;SDS011;50122;56.330;43.838;2022-08-21T18:00:27;10.38;;;4.15;;
63945;SDS011;50122;56.330;43.838;2022-08-21T18:03:03;8.02;;;4.07;;
63945;SDS011;50122;56.330;43.838;2022-08-21T18:05:34;7.78;;;4.03;;
63945;SDS011;50122;56.330;43.838;2022-08-21T18:08:01;8.30;;;4.30;;
63945;SDS011;50122;56.330;43.838;2022-08-21T18:10:28;12.05;;;3.90;;
63945;SDS011;50122;56.330;43.838;2022-08-21T18:12:56;11.35;;;4.00;;
63945;SDS011;50122;56.330;43.838;2022-08-21T18:15:23;9.43;;;4.38;;
63945;SDS011;50122;56.330;43.838;2022-08-21T18:17:50;8.95;;;4.10;;
63945;SDS011;50122;56.330;43.838;2022-08-21T18:20:18;11.32;;;4.57;;
63945;SDS011;50122;56.330;43.838;2022-08-21T18:22:48;8.40;;;3.80;;
63945;SDS011;50122;56.330;43.838;2022-08-21T18:25:15;9.75;;;4.35;;
63945;SDS011;50122;56.330;43.838;2022-08-21T18:27:42;8.68;;;4.30;;
63945;SDS011;50122;56.330;43.838;2022-08-21T18:30:13;9.70;;;4.50;;
63945;SDS011;50122;56.330;43.838;2022-08-21T18:32:46;12.10;;;4.47;;
63945;SDS011;50122;56.330;43.838;2022-08-21T18:35:14;10.45;;;4.63;;
63945;SDS011;50122;56.330;43.838;2022-08-21T18:37:41;7.65;;;4.57;;
63945;SDS011;50122;56.330;43.838;2022-08-21T18:40:09;7.95;;;4.30;;
63945;SDS011;50122;56.330;43.838;2022-08-21T18:42:37;9.95;;;4.22;;
63945;SDS011;50122;56.330;43.838;2022-08-21T18:45:23;14.50;;;4.70;;
63945;SDS011;50122;56.330;43.838;2022-08-21T18:47:51;10.65;;;4.63;;
63945;SDS011;50122;56.330;43.838;2022-08-21T18:50:21;9.13;;;3.92;;
63945;SDS011;50122;56.330;43.838;2022-08-21T18:52:51;12.43;;;4.45;;
63945;SDS011;50122;56.330;43.838;2022-08-21T18:55:21;10.15;;;4.43;;
63945;SDS011;50122;56.330;43.838;2022-08-21T18:57:50;9.40;;;4.60;;
63945;SDS011;50122;56.330;43.838;2022-08-21T19:00:25;9.93;;;4.22;;
63945;SDS011;50122;56.330;43.838;2022-08-21T19:02:56;10.68;;;5.05;;
63945;SDS011;50122;56.330;43.838;2022-08-21T19:05:24;11.30;;;4.70;;
63945;SDS011;50122;56.330;43.838;2022-08-21T19:07:51;8.70;;;4.20;;
63945;SDS011;50122;56.330;43.838;2022-08-21T19:10:21;10.50;;;4.30;;
63945;SDS011;50122;56.330;43.838;2022-08-21T19:13:09;9.20;;;4.72;;
63945;SDS011;50122;56.330;43.838;2022-08-21T19:15:40;11.15;;;4.93;;
63945;SDS011;50122;56.330;43.838;2022-08-21T19:18:10;9.50;;;4.45;;
63945;SDS011;50122;56.330;43.838;2022-08-21T19:20:39;8.75;;;4.55;;
63945;SDS011;50122;56.330;43.838;2022-08-21T19:23:09;15.30;;;4.40;;
63945;SDS011;50122;56.330;43.838;2022-08-21T19:25:38;11.50;;;4.25;;
63945;SDS011;50122;56.330;43.838;2022-08-21T19:28:08;8.95;;;4.57;;
63945;SDS011;50122;56.330;43.838;2022-08-21T19:30:40;13.07;;;4.60;;
63945;SDS011;50122;56.330;43.838;2022-08-21T19:33:12;15.85;;;5.32;;
63945;SDS011;50122;56.330;43.838;2022-08-21T19:36:07;8.07;;;4.32;;
63945;SDS011;50122;56.330;43.838;2022-08-21T19:38:35;14.75;;;7.10;;
63945;SDS011;50122;56.330;43.838;2022-08-21T19:41:03;9.77;;;5.70;;
63945;SDS011;50122;56.330;43.838;2022-08-21T19:43:38;12.38;;;4.85;;
63945;SDS011;50122;56.330;43.838;2022-08-21T19:46:10;11.30;;;4.43;;
63945;SDS011;50122;56.330;43.838;2022-08-21T19:48:42;19.30;;;4.97;;
63945;SDS011;50122;56.330;43.838;2022-08-21T19:51:12;11.30;;;4.68;;
63945;SDS011;50122;56.330;43.838;2022-08-21T19:53:39;14.77;;;4.60;;
63945;SDS011;50122;56.330;43.838;2022-08-21T19:56:05;13.73;;;4.95;;
63945;SDS011;50122;56.330;43.838;2022-08-21T19:58:38;11.40;;;4.30;;
63945;SDS011;50122;56.330;43.838;2022-08-21T20:01:07;11.80;;;5.38;;
63945;SDS011;50122;56.330;43.838;2022-08-21T20:03:42;11.98;;;4.63;;
63945;SDS011;50122;56.330;43.838;2022-08-21T20:06:31;18.40;;;4.88;;
63945;SDS011;50122;56.330;43.838;2022-08-21T20:09:00;16.45;;;4.97;;
63945;SDS011;50122;56.330;43.838;2022-08-21T20:11:44;16.10;;;4.75;;
63945;SDS011;50122;56.330;43.838;2022-08-21T20:14:16;12.82;;;4.63;;
63945;SDS011;50122;56.330;43.838;2022-08-21T20:16:45;12.77;;;5.30;;
63945;SDS011;50122;56.330;43.838;2022-08-21T20:19:17;10.75;;;5.15;;
63945;SDS011;50122;56.330;43.838;2022-08-21T20:21:45;12.75;;;5.13;;
63945;SDS011;50122;56.330;43.838;2022-08-21T20:24:12;17.08;;;5.28;;
63945;SDS011;50122;56.330;43.838;2022-08-21T20:26:59;19.73;;;5.80;;
63945;SDS011;50122;56.330;43.838;2022-08-21T20:29:31;14.73;;;4.78;;
63945;SDS011;50122;56.330;43.838;2022-08-21T20:32:04;17.83;;;4.97;;
63945;SDS011;50122;56.330;43.838;2022-08-21T20:34:37;15.35;;;5.90;;
63945;SDS011;50122;56.330;43.838;2022-08-21T20:37:05;25.83;;;5.70;;
63945;SDS011;50122;56.330;43.838;2022-08-21T20:39:34;29.35;;;6.63;;
63945;SDS011;50122;56.330;43.838;2022-08-21T20:42:02;26.65;;;5.78;;
63945;SDS011;50122;56.330;43.838;2022-08-21T20:44:32;18.48;;;5.75;;
63945;SDS011;50122;56.330;43.838;2022-08-21T20:47:01;20.60;;;5.53;;
63945;SDS011;50122;56.330;43.838;2022-08-21T20:49:36;22.02;;;5.00;;
63945;SDS011;50122;56.330;43.838;2022-08-21T20:52:11;19.20;;;5.63;;
63945;SDS011;50122;56.330;43.838;2022-08-21T20:54:49;10.23;;;5.10;;
63945;SDS011;50122;56.330;43.838;2022-08-21T20:57:26;14.30;;;5.57;;
63945;SDS011;50122;56.330;43.838;2022-08-21T21:00:00;13.75;;;5.18;;
63945;SDS011;50122;56.330;43.838;2022-08-21T21:02:41;9.68;;;5.25;;
63945;SDS011;50122;56.330;43.838;2022-08-21T21:05:21;10.50;;;5.50;;
63945;SDS011;50122;56.330;43.838;2022-08-21T21:10:27;15.05;;;5.40;;
63945;SDS011;50122;56.330;43.838;2022-08-21T21:13:37;9.05;;;5.00;;
63945;SDS011;50122;56.330;43.838;2022-08-21T21:16:11;9.95;;;4.78;;
63945;SDS011;50122;56.330;43.838;2022-08-21T21:18:59;10.55;;;5.32;;
63945;SDS011;50122;56.330;43.838;2022-08-21T21:21:39;13.63;;;5.40;;
63945;SDS011;50122;56.330;43.838;2022-08-21T21:30:18;9.68;;;5.20;;
63945;SDS011;50122;56.330;43.838;2022-08-21T21:32:46;16.95;;;5.80;;
63945;SDS011;50122;56.330;43.838;2022-08-21T21:35:14;15.30;;;5.45;;
63945;SDS011;50122;56.330;43.838;2022-08-21T21:47:30;10.95;;;5.18;;
63945;SDS011;50122;56.330;43.838;2022-08-21T21:56:27;13.63;;;6.10;;
63945;SDS011;50122;56.330;43.838;2022-08-21T21:59:23;13.38;;;5.60;;
63945;SDS011;50122;56.330;43.838;2022-08-21T22:16:15;9.38;;;5.30;;
63945;SDS011;50122;56.330;43.838;2022-08-21T22:18:58;11.15;;;6.22;;
63945;SDS011;50122;56.330;43.838;2022-08-21T22:21:35;14.43;;;5.60;;
63945;SDS011;50122;56.330;43.838;2022-08-21T22:24:07;9.95;;;6.10;;
63945;SDS011;50122;56.330;43.838;2022-08-21T22:26:42;12.05;;;6.20;;
63945;SDS011;50122;56.330;43.838;2022-08-21T22:29:19;10.50;;;5.70;;
63945;SDS011;50122;56.330;43.838;2022-08-21T22:32:00;10.35;;;5.97;;
63945;SDS011;50122;56.330;43.838;2022-08-21T22:34:32;9.83;;;5.53;;
63945;SDS011;50122;56.330;43.838;2022-08-21T22:37:00;8.82;;;5.53;;
63945;SDS011;50122;56.330;43.838;2022-08-21T22:39:35;9.02;;;5.47;;
63945;SDS011;50122;56.330;43.838;2022-08-21T22:42:10;8.70;;;5.47;;
63945;SDS011;50122;56.330;43.838;2022-08-21T22:44:46;12.15;;;5.68;;
63945;SDS011;50122;56.330;43.838;2022-08-21T22:47:21;13.13;;;6.00;;
63945;SDS011;50122;56.330;43.838;2022-08-21T22:49:51;12.05;;;6.03;;
63945;SDS011;50122;56.330;43.838;2022-08-21T22:54:53;9.75;;;5.65;;
63945;SDS011;50122;56.330;43.838;2022-08-21T22:57:32;8.85;;;6.00;;
63945;SDS011;50122;56.330;43.838;2022-08-21T23:00:05;12.10;;;6.30;;
63945;SDS011;50122;56.330;43.838;2022-08-21T23:02:42;11.93;;;6.20;;
63945;SDS011;50122;56.330;43.838;2022-08-21T23:05:30;9.10;;;5.78;;
63945;SDS011;50122;56.330;43.838;2022-08-21T23:08:11;11.73;;;5.80;;
63945;SDS011;50122;56.330;43.838;2022-08-21T23:10:49;10.15;;;5.80;;
63945;SDS011;50122;56.330;43.838;2022-08-21T23:13:22;9.93;;;6.05;;
63945;SDS011;50122;56.330;43.838;2022-08-21T23:21:12;7.72;;;5.65;;
63945;SDS011;50122;56.330;43.838;2022-08-21T23:35:43;12.85;;;6.22;;
63945;SDS011;50122;56.330;43.838;2022-08-21T23:41:24;12.43;;;6.10;;
63945;SDS011;50122;56.330;43.838;2022-08-21T23:57:48;12.50;;;6.50;;
